sensor_id;sensor_type;location;lat;lon;timestamp;P1;durP1;ratioP1;P2;durP2;ratioP2
21101;SDS011;10709;49.006;12.100;2023-04-08T00:00:42;10.70;;;8.10;;
21101;SDS011;10709;49.006;12.100;2023-04-08T00:03:10;10.47;;;7.70;;
21101;SDS011;10709;49.006;12.100;2023-04-08T00:05:36;12.17;;;8.37;;
21101;SDS011;10709;49.006;12.100;2023-04-08T00:08:03;11.67;;;8.13;;
21101;SDS011;10709;49.006;12.100;2023-04-08T00:10:30;11.47;;;8.23;;
21101;SDS011;10709;49.006;12.100;2023-04-08T00:12:57;10.80;;;8.10;;
21101;SDS011;10709;49.006;12.100;2023-04-08T00:15:23;11.77;;;7.80;;
21101;SDS011;10709;49.006;12.100;2023-04-08T00:17:49;12.60;;;8.80;;
21101;SDS011;10709;49.006;12.100;2023-04-08T00:20:16;12.27;;;8.33;;
21101;SDS011;10709;49.006;12.100;2023-04-08T00:22:42;11.23;;;8.30;;
21101;SDS011;10709;49.006;12.100;2023-04-08T00:25:09;11.60;;;8.10;;
21101;SDS011;10709;49.006;12.100;2023-04-08T00:27:35;12.30;;;8.60;;
21101;SDS011;10709;49.006;12.100;2023-04-08T00:30:02;9.77;;;7.63;;
21101;SDS011;10709;49.006;12.100;2023-04-08T00:32:29;10.30;;;8.17;;
21101;SDS011;10709;49.006;12.100;2023-04-08T00:34:55;13.80;;;8.60;;
21101;SDS011;10709;49.006;12.100;2023-04-08T00:37:22;10.73;;;7.80;;
21101;SDS011;10709;49.006;12.100;2023-04-08T00:39:48;11.67;;;9.13;;
21101;SDS011;10709;49.006;12.100;2023-04-08T00:42:15;11.50;;;8.50;;
21101;SDS011;10709;49.006;12.100;2023-04-08T00:44:42;11.40;;;8.60;;
21101;SDS011;10709;49.006;12.100;2023-04-08T00:47:12;12.23;;;8.60;;
21101;SDS011;10709;49.006;12.100;2023-04-08T00:49:40;14.93;;;9.17;;
21101;SDS011;10709;49.006;12.100;2023-04-08T00:52:07;13.50;;;8.60;;
21101;SDS011;10709;49.006;12.100;2023-04-08T00:54:34;11.47;;;8.47;;
21101;SDS011;10709;49.006;12.100;2023-04-08T00:57:02;10.20;;;8.27;;
21101;SDS011;10709;49.006;12.100;2023-04-08T00:59:29;12.77;;;9.57;;
21101;SDS011;10709;49.006;12.100;2023-04-08T01:02:09;12.90;;;9.13;;
21101;SDS011;10709;49.006;12.100;2023-04-08T01:04:49;13.47;;;8.90;;
21101;SDS011;10709;49.006;12.100;2023-04-08T01:07:21;12.03;;;8.80;;
21101;SDS011;10709;49.006;12.100;2023-04-08T01:09:53;12.13;;;8.73;;
21101;SDS011;10709;49.006;12.100;2023-04-08T01:12:26;12.93;;;9.37;;
21101;SDS011;10709;49.006;12.100;2023-04-08T01:14:59;11.30;;;8.37;;
21101;SDS011;10709;49.006;12.100;2023-04-08T01:17:29;11.10;;;8.70;;
21101;SDS011;10709;49.006;12.100;2023-04-08T01:19:58;12.87;;;8.80;;
21101;SDS011;10709;49.006;12.100;2023-04-08T01:22:40;13.20;;;8.93;;
21101;SDS011;10709;49.006;12.100;2023-04-08T01:25:15;12.70;;;9.33;;
21101;SDS011;10709;49.006;12.100;2023-04-08T01:27:44;14.27;;;9.47;;
21101;SDS011;10709;49.006;12.100;2023-04-08T01:30:13;12.07;;;9.40;;
21101;SDS011;10709;49.006;12.100;2023-04-08T01:32:42;13.37;;;9.00;;
21101;SDS011;10709;49.006;12.100;2023-04-08T01:35:10;12.17;;;9.33;;
21101;SDS011;10709;49.006;12.100;2023-04-08T01:37:37;10.77;;;8.40;;
21101;SDS011;10709;49.006;12.100;2023-04-08T01:40:06;11.33;;;8.90;;
21101;SDS011;10709;49.006;12.100;2023-04-08T01:42:34;11.10;;;8.77;;
21101;SDS011;10709;49.006;12.100;2023-04-08T01:45:01;10.77;;;8.10;;
21101;SDS011;10709;49.006;12.100;2023-04-08T01:47:29;10.90;;;7.90;;
21101;SDS011;10709;49.006;12.100;2023-04-08T01:49:56;11.87;;;8.00;;
21101;SDS011;10709;49.006;12.100;2023-04-08T01:52:24;12.47;;;8.90;;
21101;SDS011;10709;49.006;12.100;2023-04-08T01:54:53;11.47;;;7.80;;
21101;SDS011;10709;49.006;12.100;2023-04-08T01:57:21;11.97;;;8.50;;
21101;SDS011;10709;49.006;12.100;2023-04-08T01:59:50;11.73;;;8.47;;
21101;SDS011;10709;49.006;12.100;2023-04-08T02:02:21;12.03;;;8.40;;
21101;SDS011;10709;49.006;12.100;2023-04-08T02:04:54;11.60;;;8.20;;
21101;SDS011;10709;49.006;12.100;2023-04-08T02:07:21;10.07;;;8.10;;
21101;SDS011;10709;49.006;12.100;2023-04-08T02:09:47;11.60;;;7.87;;
21101;SDS011;10709;49.006;12.100;2023-04-08T02:12:13;9.27;;;7.63;;
21101;SDS011;10709;49.006;12.100;2023-04-08T02:14:40;13.27;;;8.07;;
21101;SDS011;10709;49.006;12.100;2023-04-08T02:17:08;11.83;;;8.70;;
21101;SDS011;10709;49.006;12.100;2023-04-08T02:19:43;9.60;;;7.80;;
21101;SDS011;10709;49.006;12.100;2023-04-08T02:22:18;11.50;;;8.43;;
21101;SDS011;10709;49.006;12.100;2023-04-08T02:24:51;10.80;;;7.83;;
21101;SDS011;10709;49.006;12.100;2023-04-08T02:27:18;12.70;;;8.40;;
21101;SDS011;10709;49.006;12.100;2023-04-08T02:29:45;11.00;;;8.23;;
21101;SDS011;10709;49.006;12.100;2023-04-08T02:32:14;11.73;;;8.03;;
21101;SDS011;10709;49.006;12.100;2023-04-08T02:34:42;10.00;;;7.50;;
21101;SDS011;10709;49.006;12.100;2023-04-08T02:37:08;9.37;;;7.80;;
21101;SDS011;10709;49.006;12.100;2023-04-08T02:39:35;12.70;;;8.93;;
21101;SDS011;10709;49.006;12.100;2023-04-08T02:42:02;10.40;;;8.00;;
21101;SDS011;10709;49.006;12.100;2023-04-08T02:44:30;10.90;;;7.23;;
21101;SDS011;10709;49.006;12.100;2023-04-08T02:46:56;10.97;;;7.93;;
21101;SDS011;10709;49.006;12.100;2023-04-08T02:49:22;10.37;;;8.43;;
21101;SDS011;10709;49.006;12.100;2023-04-08T02:51:49;10.87;;;8.47;;
21101;SDS011;10709;49.006;12.100;2023-04-08T02:54:15;12.73;;;8.53;;
21101;SDS011;10709;49.006;12.100;2023-04-08T02:56:42;10.50;;;8.17;;
21101;SDS011;10709;49.006;12.100;2023-04-08T02:59:08;13.03;;;8.37;;
21101;SDS011;10709;49.006;12.100;2023-04-08T03:01:35;11.70;;;8.30;;
21101;SDS011;10709;49.006;12.100;2023-04-08T03:04:02;13.13;;;8.67;;
21101;SDS011;10709;49.006;12.100;2023-04-08T03:06:29;11.10;;;7.90;;
21101;SDS011;10709;49.006;12.100;2023-04-08T03:08:56;11.67;;;8.50;;
21101;SDS011;10709;49.006;12.100;2023-04-08T03:11:23;11.90;;;8.10;;
21101;SDS011;10709;49.006;12.100;2023-04-08T03:13:49;15.00;;;9.40;;
21101;SDS011;10709;49.006;12.100;2023-04-08T03:16:16;13.13;;;9.00;;
21101;SDS011;10709;49.006;12.100;2023-04-08T03:18:43;11.53;;;8.77;;
21101;SDS011;10709;49.006;12.100;2023-04-08T03:21:09;10.90;;;8.13;;
21101;SDS011;10709;49.006;12.100;2023-04-08T03:23:35;10.50;;;7.90;;
21101;SDS011;10709;49.006;12.100;2023-04-08T03:26:02;12.70;;;9.20;;
21101;SDS011;10709;49.006;12.100;2023-04-08T03:28:28;12.37;;;8.53;;
21101;SDS011;10709;49.006;12.100;2023-04-08T03:30:55;12.70;;;8.73;;
21101;SDS011;10709;49.006;12.100;2023-04-08T03:33:21;15.17;;;9.40;;
21101;SDS011;10709;49.006;12.100;2023-04-08T03:35:48;12.60;;;8.93;;
21101;SDS011;10709;49.006;12.100;2023-04-08T03:38:14;11.73;;;8.67;;
21101;SDS011;10709;49.006;12.100;2023-04-08T03:40:41;12.70;;;9.07;;
21101;SDS011;10709;49.006;12.100;2023-04-08T03:43:08;13.20;;;9.17;;
21101;SDS011;10709;49.006;12.100;2023-04-08T03:45:36;14.17;;;9.90;;
21101;SDS011;10709;49.006;12.100;2023-04-08T03:48:03;13.20;;;8.93;;
21101;SDS011;10709;49.006;12.100;2023-04-08T03:50:29;13.10;;;9.13;;
21101;SDS011;10709;49.006;12.100;2023-04-08T03:52:56;13.67;;;9.30;;
21101;SDS011;10709;49.006;12.100;2023-04-08T03:55:22;13.43;;;9.37;;
21101;SDS011;10709;49.006;12.100;2023-04-08T03:57:49;14.40;;;8.87;;
21101;SDS011;10709;49.006;12.100;2023-04-08T04:00:15;12.47;;;8.93;;
21101;SDS011;10709;49.006;12.100;2023-04-08T04:02:42;11.93;;;9.43;;
21101;SDS011;10709;49.006;12.100;2023-04-08T04:05:09;13.47;;;9.80;;
21101;SDS011;10709;49.006;12.100;2023-04-08T04:07:35;15.27;;;9.30;;
21101;SDS011;10709;49.006;12.100;2023-04-08T04:10:02;13.20;;;9.10;;
21101;SDS011;10709;49.006;12.100;2023-04-08T04:12:28;12.90;;;9.13;;
21101;SDS011;10709;49.006;12.100;2023-04-08T04:14:55;13.37;;;10.30;;
21101;SDS011;10709;49.006;12.100;2023-04-08T04:17:22;13.20;;;9.73;;
21101;SDS011;10709;49.006;12.100;2023-04-08T04:19:48;13.67;;;10.27;;
21101;SDS011;10709;49.006;12.100;2023-04-08T04:22:14;13.37;;;9.73;;
21101;SDS011;10709;49.006;12.100;2023-04-08T04:24:41;14.13;;;9.67;;
21101;SDS011;10709;49.006;12.100;2023-04-08T04:27:12;17.47;;;10.23;;
21101;SDS011;10709;49.006;12.100;2023-04-08T04:29:38;14.70;;;9.83;;
21101;SDS011;10709;49.006;12.100;2023-04-08T04:32:04;12.60;;;8.97;;
21101;SDS011;10709;49.006;12.100;2023-04-08T04:34:32;14.00;;;9.90;;
21101;SDS011;10709;49.006;12.100;2023-04-08T04:36:58;11.63;;;8.47;;
21101;SDS011;10709;49.006;12.100;2023-04-08T04:39:24;12.60;;;9.27;;
21101;SDS011;10709;49.006;12.100;2023-04-08T04:41:51;15.30;;;9.50;;
21101;SDS011;10709;49.006;12.100;2023-04-08T04:44:17;13.57;;;8.70;;
21101;SDS011;10709;49.006;12.100;2023-04-08T04:46:44;12.90;;;9.60;;
21101;SDS011;10709;49.006;12.100;2023-04-08T04:49:11;12.40;;;9.67;;
21101;SDS011;10709;49.006;12.100;2023-04-08T04:51:37;12.37;;;9.20;;
21101;SDS011;10709;49.006;12.100;2023-04-08T04:54:04;13.77;;;9.43;;
21101;SDS011;10709;49.006;12.100;2023-04-08T04:56:30;12.30;;;9.47;;
21101;SDS011;10709;49.006;12.100;2023-04-08T04:58:57;15.43;;;10.17;;
21101;SDS011;10709;49.006;12.100;2023-04-08T05:01:23;15.13;;;9.73;;
21101;SDS011;10709;49.006;12.100;2023-04-08T05:03:50;11.33;;;8.47;;
21101;SDS011;10709;49.006;12.100;2023-04-08T05:06:16;14.57;;;10.00;;
21101;SDS011;10709;49.006;12.100;2023-04-08T05:08:43;13.03;;;9.50;;
21101;SDS011;10709;49.006;12.100;2023-04-08T05:11:10;12.87;;;8.87;;
21101;SDS011;10709;49.006;12.100;2023-04-08T05:13:36;13.87;;;9.27;;
21101;SDS011;10709;49.006;12.100;2023-04-08T05:16:03;13.60;;;9.27;;
21101;SDS011;10709;49.006;12.100;2023-04-08T05:18:30;12.93;;;9.60;;
21101;SDS011;10709;49.006;12.100;2023-04-08T05:20:56;12.00;;;9.43;;
21101;SDS011;10709;49.006;12.100;2023-04-08T05:23:23;12.60;;;9.70;;
21101;SDS011;10709;49.006;12.100;2023-04-08T05:25:50;17.50;;;9.40;;
21101;SDS011;10709;49.006;12.100;2023-04-08T05:28:17;13.47;;;9.30;;
21101;SDS011;10709;49.006;12.100;2023-04-08T05:30:49;15.70;;;9.60;;
21101;SDS011;10709;49.006;12.100;2023-04-08T05:33:17;13.50;;;10.10;;
21101;SDS011;10709;49.006;12.100;2023-04-08T05:35:44;12.70;;;9.53;;
21101;SDS011;10709;49.006;12.100;2023-04-08T05:38:11;12.77;;;9.27;;
21101;SDS011;10709;49.006;12.100;2023-04-08T05:40:38;14.07;;;10.27;;
21101;SDS011;10709;49.006;12.100;2023-04-08T05:43:04;14.43;;;10.87;;
21101;SDS011;10709;49.006;12.100;2023-04-08T05:45:31;14.30;;;11.07;;
21101;SDS011;10709;49.006;12.100;2023-04-08T05:47:57;15.67;;;11.50;;
21101;SDS011;10709;49.006;12.100;2023-04-08T05:50:24;16.13;;;11.70;;
21101;SDS011;10709;49.006;12.100;2023-04-08T05:52:51;15.93;;;11.97;;
21101;SDS011;10709;49.006;12.100;2023-04-08T05:55:18;18.13;;;11.20;;
21101;SDS011;10709;49.006;12.100;2023-04-08T05:57:44;15.20;;;11.37;;
21101;SDS011;10709;49.006;12.100;2023-04-08T06:00:11;15.10;;;11.30;;
21101;SDS011;10709;49.006;12.100;2023-04-08T06:02:38;14.17;;;10.60;;
21101;SDS011;10709;49.006;12.100;2023-04-08T06:05:05;14.53;;;10.90;;
21101;SDS011;10709;49.006;12.100;2023-04-08T06:07:31;16.67;;;10.87;;
21101;SDS011;10709;49.006;12.100;2023-04-08T06:09:59;14.80;;;11.00;;
21101;SDS011;10709;49.006;12.100;2023-04-08T06:12:25;15.10;;;11.20;;
21101;SDS011;10709;49.006;12.100;2023-04-08T06:14:54;16.00;;;11.70;;
21101;SDS011;10709;49.006;12.100;2023-04-08T06:17:21;17.13;;;11.40;;
21101;SDS011;10709;49.006;12.100;2023-04-08T06:19:48;15.23;;;12.70;;
21101;SDS011;10709;49.006;12.100;2023-04-08T06:22:14;16.07;;;11.43;;
21101;SDS011;10709;49.006;12.100;2023-04-08T06:24:41;15.30;;;11.23;;
21101;SDS011;10709;49.006;12.100;2023-04-08T06:27:07;15.83;;;12.47;;
21101;SDS011;10709;49.006;12.100;2023-04-08T06:29:34;16.47;;;12.53;;
21101;SDS011;10709;49.006;12.100;2023-04-08T06:32:01;17.13;;;11.97;;
21101;SDS011;10709;49.006;12.100;2023-04-08T06:34:27;14.93;;;10.87;;
21101;SDS011;10709;49.006;12.100;2023-04-08T06:36:54;13.33;;;10.17;;
21101;SDS011;10709;49.006;12.100;2023-04-08T06:39:20;16.70;;;12.67;;
21101;SDS011;10709;49.006;12.100;2023-04-08T06:41:47;16.33;;;12.00;;
21101;SDS011;10709;49.006;12.100;2023-04-08T06:44:13;15.60;;;12.50;;
21101;SDS011;10709;49.006;12.100;2023-04-08T06:46:41;15.60;;;12.83;;
21101;SDS011;10709;49.006;12.100;2023-04-08T06:49:07;20.33;;;14.80;;
21101;SDS011;10709;49.006;12.100;2023-04-08T06:51:34;16.93;;;13.13;;
21101;SDS011;10709;49.006;12.100;2023-04-08T06:54:00;19.30;;;14.20;;
21101;SDS011;10709;49.006;12.100;2023-04-08T06:56:27;16.77;;;12.47;;
21101;SDS011;10709;49.006;12.100;2023-04-08T06:58:53;15.07;;;11.43;;
21101;SDS011;10709;49.006;12.100;2023-04-08T07:01:19;19.43;;;14.67;;
21101;SDS011;10709;49.006;12.100;2023-04-08T07:03:46;17.60;;;12.83;;
21101;SDS011;10709;49.006;12.100;2023-04-08T07:06:13;14.53;;;11.47;;
21101;SDS011;10709;49.006;12.100;2023-04-08T07:08:39;19.13;;;14.27;;
21101;SDS011;10709;49.006;12.100;2023-04-08T07:11:06;15.57;;;11.60;;
21101;SDS011;10709;49.006;12.100;2023-04-08T07:13:32;17.27;;;13.40;;
21101;SDS011;10709;49.006;12.100;2023-04-08T07:15:59;17.97;;;13.63;;
21101;SDS011;10709;49.006;12.100;2023-04-08T07:18:26;14.60;;;11.57;;
21101;SDS011;10709;49.006;12.100;2023-04-08T07:20:53;18.90;;;14.00;;
21101;SDS011;10709;49.006;12.100;2023-04-08T07:23:20;16.17;;;11.97;;
21101;SDS011;10709;49.006;12.100;2023-04-08T07:25:46;15.77;;;12.43;;
21101;SDS011;10709;49.006;12.100;2023-04-08T07:28:13;17.37;;;13.40;;
21101;SDS011;10709;49.006;12.100;2023-04-08T07:30:39;15.73;;;12.43;;
21101;SDS011;10709;49.006;12.100;2023-04-08T07:33:06;16.80;;;13.17;;
21101;SDS011;10709;49.006;12.100;2023-04-08T07:35:32;16.33;;;13.13;;
21101;SDS011;10709;49.006;12.100;2023-04-08T07:37:59;19.33;;;12.77;;
21101;SDS011;10709;49.006;12.100;2023-04-08T07:40:26;14.03;;;12.07;;
21101;SDS011;10709;49.006;12.100;2023-04-08T07:42:52;18.77;;;13.30;;
21101;SDS011;10709;49.006;12.100;2023-04-08T07:45:19;17.37;;;12.60;;
21101;SDS011;10709;49.006;12.100;2023-04-08T07:47:46;14.90;;;12.23;;
21101;SDS011;10709;49.006;12.100;2023-04-08T07:50:12;16.67;;;12.57;;
21101;SDS011;10709;49.006;12.100;2023-04-08T07:52:39;16.97;;;12.60;;
21101;SDS011;10709;49.006;12.100;2023-04-08T07:55:05;16.70;;;13.03;;
21101;SDS011;10709;49.006;12.100;2023-04-08T07:57:32;16.23;;;12.53;;
21101;SDS011;10709;49.006;12.100;2023-04-08T07:59:59;13.87;;;10.77;;
21101;SDS011;10709;49.006;12.100;2023-04-08T08:02:25;12.50;;;10.53;;
21101;SDS011;10709;49.006;12.100;2023-04-08T08:04:52;13.87;;;10.60;;
21101;SDS011;10709;49.006;12.100;2023-04-08T08:07:18;11.17;;;9.70;;
21101;SDS011;10709;49.006;12.100;2023-04-08T08:09:44;13.77;;;11.20;;
21101;SDS011;10709;49.006;12.100;2023-04-08T08:12:11;14.37;;;11.47;;
21101;SDS011;10709;49.006;12.100;2023-04-08T08:14:38;14.57;;;11.50;;
21101;SDS011;10709;49.006;12.100;2023-04-08T08:17:04;15.60;;;11.43;;
21101;SDS011;10709;49.006;12.100;2023-04-08T08:19:31;12.60;;;10.83;;
21101;SDS011;10709;49.006;12.100;2023-04-08T08:21:57;14.50;;;11.27;;
21101;SDS011;10709;49.006;12.100;2023-04-08T08:24:24;13.47;;;10.80;;
21101;SDS011;10709;49.006;12.100;2023-04-08T08:26:51;11.67;;;9.80;;
21101;SDS011;10709;49.006;12.100;2023-04-08T08:29:17;13.40;;;10.47;;
21101;SDS011;10709;49.006;12.100;2023-04-08T08:31:44;13.90;;;11.13;;
21101;SDS011;10709;49.006;12.100;2023-04-08T08:34:11;14.43;;;10.70;;
21101;SDS011;10709;49.006;12.100;2023-04-08T08:36:37;11.93;;;9.40;;
21101;SDS011;10709;49.006;12.100;2023-04-08T08:39:04;14.57;;;11.27;;
21101;SDS011;10709;49.006;12.100;2023-04-08T08:41:33;15.73;;;11.80;;
21101;SDS011;10709;49.006;12.100;2023-04-08T08:44:04;17.57;;;12.23;;
21101;SDS011;10709;49.006;12.100;2023-04-08T08:46:30;13.33;;;10.57;;
21101;SDS011;10709;49.006;12.100;2023-04-08T08:48:57;15.83;;;12.20;;
21101;SDS011;10709;49.006;12.100;2023-04-08T08:51:24;12.03;;;9.93;;
21101;SDS011;10709;49.006;12.100;2023-04-08T08:53:51;15.37;;;12.77;;
21101;SDS011;10709;49.006;12.100;2023-04-08T08:56:18;15.40;;;12.40;;
21101;SDS011;10709;49.006;12.100;2023-04-08T08:58:44;14.33;;;11.70;;
21101;SDS011;10709;49.006;12.100;2023-04-08T09:04:18;14.30;;;11.13;;
21101;SDS011;10709;49.006;12.100;2023-04-08T09:06:48;15.47;;;12.17;;
21101;SDS011;10709;49.006;12.100;2023-04-08T09:09:16;14.30;;;11.53;;
21101;SDS011;10709;49.006;12.100;2023-04-08T09:11:44;13.70;;;11.07;;
21101;SDS011;10709;49.006;12.100;2023-04-08T09:14:18;12.67;;;10.13;;
21101;SDS011;10709;49.006;12.100;2023-04-08T09:16:48;13.10;;;11.47;;
21101;SDS011;10709;49.006;12.100;2023-04-08T09:19:15;13.03;;;10.67;;
21101;SDS011;10709;49.006;12.100;2023-04-08T09:21:42;13.90;;;11.30;;
21101;SDS011;10709;49.006;12.100;2023-04-08T09:24:09;14.60;;;11.20;;
21101;SDS011;10709;49.006;12.100;2023-04-08T09:26:53;11.30;;;9.93;;
21101;SDS011;10709;49.006;12.100;2023-04-08T09:29:25;12.73;;;10.37;;
21101;SDS011;10709;49.006;12.100;2023-04-08T09:31:57;11.73;;;10.03;;
21101;SDS011;10709;49.006;12.100;2023-04-08T09:34:25;13.40;;;10.50;;
21101;SDS011;10709;49.006;12.100;2023-04-08T09:36:53;17.77;;;11.47;;
21101;SDS011;10709;49.006;12.100;2023-04-08T09:39:20;14.13;;;11.67;;
21101;SDS011;10709;49.006;12.100;2023-04-08T09:41:48;15.93;;;11.33;;
21101;SDS011;10709;49.006;12.100;2023-04-08T09:44:16;14.63;;;10.90;;
21101;SDS011;10709;49.006;12.100;2023-04-08T09:49:28;15.13;;;11.63;;
21101;SDS011;10709;49.006;12.100;2023-04-08T09:52:20;13.93;;;11.10;;
21101;SDS011;10709;49.006;12.100;2023-04-08T10:00:10;17.07;;;11.97;;
21101;SDS011;10709;49.006;12.100;2023-04-08T10:02:55;17.70;;;11.53;;
21101;SDS011;10709;49.006;12.100;2023-04-08T10:05:30;13.20;;;10.80;;
21101;SDS011;10709;49.006;12.100;2023-04-08T10:07:57;16.67;;;11.93;;
21101;SDS011;10709;49.006;12.100;2023-04-08T10:10:24;16.50;;;11.10;;
21101;SDS011;10709;49.006;12.100;2023-04-08T10:12:52;19.20;;;11.20;;
21101;SDS011;10709;49.006;12.100;2023-04-08T10:15:31;16.03;;;11.50;;
21101;SDS011;10709;49.006;12.100;2023-04-08T10:23:02;17.07;;;12.17;;
21101;SDS011;10709;49.006;12.100;2023-04-08T10:25:37;16.60;;;12.23;;
21101;SDS011;10709;49.006;12.100;2023-04-08T10:33:11;15.30;;;11.83;;
21101;SDS011;10709;49.006;12.100;2023-04-08T10:35:41;17.80;;;12.00;;
21101;SDS011;10709;49.006;12.100;2023-04-08T10:38:12;16.57;;;11.90;;
21101;SDS011;10709;49.006;12.100;2023-04-08T10:40:39;16.33;;;12.53;;
21101;SDS011;10709;49.006;12.100;2023-04-08T10:43:08;16.53;;;12.13;;
21101;SDS011;10709;49.006;12.100;2023-04-08T10:45:36;13.70;;;10.23;;
21101;SDS011;10709;49.006;12.100;2023-04-08T10:48:19;15.77;;;11.67;;
21101;SDS011;10709;49.006;12.100;2023-04-08T10:50:57;12.57;;;10.50;;
21101;SDS011;10709;49.006;12.100;2023-04-08T10:53:29;16.03;;;11.07;;
21101;SDS011;10709;49.006;12.100;2023-04-08T10:56:08;13.27;;;10.07;;
21101;SDS011;10709;49.006;12.100;2023-04-08T10:58:53;16.90;;;11.47;;
21101;SDS011;10709;49.006;12.100;2023-04-08T11:01:24;11.97;;;9.07;;
21101;SDS011;10709;49.006;12.100;2023-04-08T11:03:51;13.27;;;9.60;;
21101;SDS011;10709;49.006;12.100;2023-04-08T11:06:19;12.67;;;9.90;;
21101;SDS011;10709;49.006;12.100;2023-04-08T11:08:45;11.23;;;9.73;;
21101;SDS011;10709;49.006;12.100;2023-04-08T11:11:12;13.10;;;10.03;;
21101;SDS011;10709;49.006;12.100;2023-04-08T11:13:40;14.13;;;10.00;;
21101;SDS011;10709;49.006;12.100;2023-04-08T11:16:18;14.07;;;9.90;;
21101;SDS011;10709;49.006;12.100;2023-04-08T11:18:46;13.70;;;9.90;;
21101;SDS011;10709;49.006;12.100;2023-04-08T11:21:14;18.47;;;9.93;;
21101;SDS011;10709;49.006;12.100;2023-04-08T11:23:42;13.43;;;9.33;;
21101;SDS011;10709;49.006;12.100;2023-04-08T11:26:09;12.13;;;9.07;;
21101;SDS011;10709;49.006;12.100;2023-04-08T11:28:36;13.23;;;8.87;;
21101;SDS011;10709;49.006;12.100;2023-04-08T11:31:04;10.27;;;8.30;;
21101;SDS011;10709;49.006;12.100;2023-04-08T11:33:31;11.27;;;8.87;;
21101;SDS011;10709;49.006;12.100;2023-04-08T11:35:59;14.47;;;9.20;;
21101;SDS011;10709;49.006;12.100;2023-04-08T11:38:27;12.17;;;8.80;;
21101;SDS011;10709;49.006;12.100;2023-04-08T11:40:54;11.63;;;8.60;;
21101;SDS011;10709;49.006;12.100;2023-04-08T11:43:24;11.57;;;9.27;;
21101;SDS011;10709;49.006;12.100;2023-04-08T11:45:55;13.67;;;9.20;;
21101;SDS011;10709;49.006;12.100;2023-04-08T11:48:25;11.87;;;8.67;;
21101;SDS011;10709;49.006;12.100;2023-04-08T11:51:01;11.83;;;8.33;;
21101;SDS011;10709;49.006;12.100;2023-04-08T11:53:29;10.33;;;7.57;;
21101;SDS011;10709;49.006;12.100;2023-04-08T11:55:56;9.47;;;7.33;;
21101;SDS011;10709;49.006;12.100;2023-04-08T11:58:22;11.50;;;7.90;;
21101;SDS011;10709;49.006;12.100;2023-04-08T12:00:49;10.33;;;7.90;;
21101;SDS011;10709;49.006;12.100;2023-04-08T12:03:15;10.53;;;8.33;;
21101;SDS011;10709;49.006;12.100;2023-04-08T12:05:43;10.37;;;7.60;;
21101;SDS011;10709;49.006;12.100;2023-04-08T12:08:09;10.00;;;7.60;;
21101;SDS011;10709;49.006;12.100;2023-04-08T12:10:36;10.43;;;8.13;;
21101;SDS011;10709;49.006;12.100;2023-04-08T12:13:02;9.07;;;7.33;;
21101;SDS011;10709;49.006;12.100;2023-04-08T12:15:29;10.00;;;7.53;;
21101;SDS011;10709;49.006;12.100;2023-04-08T12:17:55;8.40;;;7.60;;
21101;SDS011;10709;49.006;12.100;2023-04-08T12:20:23;8.33;;;7.13;;
21101;SDS011;10709;49.006;12.100;2023-04-08T12:22:49;9.20;;;7.60;;
21101;SDS011;10709;49.006;12.100;2023-04-08T12:25:16;9.13;;;7.60;;
21101;SDS011;10709;49.006;12.100;2023-04-08T12:27:42;9.13;;;7.67;;
21101;SDS011;10709;49.006;12.100;2023-04-08T12:30:09;8.80;;;7.40;;
21101;SDS011;10709;49.006;12.100;2023-04-08T12:32:35;10.23;;;7.70;;
21101;SDS011;10709;49.006;12.100;2023-04-08T12:35:02;8.23;;;7.03;;
21101;SDS011;10709;49.006;12.100;2023-04-08T12:37:29;8.33;;;6.43;;
21101;SDS011;10709;49.006;12.100;2023-04-08T12:39:55;8.43;;;7.20;;
21101;SDS011;10709;49.006;12.100;2023-04-08T12:42:22;7.40;;;6.50;;
21101;SDS011;10709;49.006;12.100;2023-04-08T12:44:48;6.67;;;5.87;;
21101;SDS011;10709;49.006;12.100;2023-04-08T12:47:15;7.77;;;6.17;;
21101;SDS011;10709;49.006;12.100;2023-04-08T12:49:42;8.40;;;7.20;;
21101;SDS011;10709;49.006;12.100;2023-04-08T12:52:15;9.13;;;7.00;;
21101;SDS011;10709;49.006;12.100;2023-04-08T12:54:42;7.33;;;6.27;;
21101;SDS011;10709;49.006;12.100;2023-04-08T12:57:08;8.13;;;6.77;;
21101;SDS011;10709;49.006;12.100;2023-04-08T12:59:35;8.50;;;6.63;;
21101;SDS011;10709;49.006;12.100;2023-04-08T13:02:03;8.77;;;7.10;;
21101;SDS011;10709;49.006;12.100;2023-04-08T13:04:30;7.13;;;6.10;;
21101;SDS011;10709;49.006;12.100;2023-04-08T13:06:56;8.27;;;6.90;;
21101;SDS011;10709;49.006;12.100;2023-04-08T13:09:24;13.50;;;9.10;;
21101;SDS011;10709;49.006;12.100;2023-04-08T13:11:51;8.43;;;7.40;;
21101;SDS011;10709;49.006;12.100;2023-04-08T13:14:18;7.07;;;6.30;;
21101;SDS011;10709;49.006;12.100;2023-04-08T13:16:44;7.23;;;6.50;;
21101;SDS011;10709;49.006;12.100;2023-04-08T13:19:11;7.87;;;6.40;;
21101;SDS011;10709;49.006;12.100;2023-04-08T13:21:38;7.87;;;6.20;;
21101;SDS011;10709;49.006;12.100;2023-04-08T13:24:04;6.00;;;5.40;;
21101;SDS011;10709;49.006;12.100;2023-04-08T13:26:31;7.30;;;6.00;;
21101;SDS011;10709;49.006;12.100;2023-04-08T13:28:57;7.67;;;6.33;;
21101;SDS011;10709;49.006;12.100;2023-04-08T13:31:25;7.07;;;6.30;;
21101;SDS011;10709;49.006;12.100;2023-04-08T13:33:51;7.50;;;5.77;;
21101;SDS011;10709;49.006;12.100;2023-04-08T13:36:22;7.67;;;5.60;;
21101;SDS011;10709;49.006;12.100;2023-04-08T13:38:48;6.77;;;5.60;;
21101;SDS011;10709;49.006;12.100;2023-04-08T13:41:16;7.50;;;6.50;;
21101;SDS011;10709;49.006;12.100;2023-04-08T13:43:42;8.23;;;6.57;;
21101;SDS011;10709;49.006;12.100;2023-04-08T13:46:09;7.97;;;6.63;;
21101;SDS011;10709;49.006;12.100;2023-04-08T13:48:35;6.37;;;5.77;;
21101;SDS011;10709;49.006;12.100;2023-04-08T13:51:02;7.27;;;6.23;;
21101;SDS011;10709;49.006;12.100;2023-04-08T13:53:28;6.57;;;5.77;;
21101;SDS011;10709;49.006;12.100;2023-04-08T13:55:55;8.00;;;6.47;;
21101;SDS011;10709;49.006;12.100;2023-04-08T13:58:24;6.07;;;5.40;;
21101;SDS011;10709;49.006;12.100;2023-04-08T14:00:51;5.97;;;5.30;;
21101;SDS011;10709;49.006;12.100;2023-04-08T14:03:18;7.53;;;6.73;;
21101;SDS011;10709;49.006;12.100;2023-04-08T14:05:44;9.00;;;6.33;;
21101;SDS011;10709;49.006;12.100;2023-04-08T14:08:11;6.77;;;5.97;;
21101;SDS011;10709;49.006;12.100;2023-04-08T14:10:39;6.30;;;5.53;;
21101;SDS011;10709;49.006;12.100;2023-04-08T14:13:07;7.10;;;5.90;;
21101;SDS011;10709;49.006;12.100;2023-04-08T14:15:33;6.73;;;5.30;;
21101;SDS011;10709;49.006;12.100;2023-04-08T14:18:00;5.90;;;5.30;;
21101;SDS011;10709;49.006;12.100;2023-04-08T14:20:27;6.27;;;5.50;;
21101;SDS011;10709;49.006;12.100;2023-04-08T14:22:53;6.63;;;5.80;;
21101;SDS011;10709;49.006;12.100;2023-04-08T14:25:21;6.60;;;5.17;;
21101;SDS011;10709;49.006;12.100;2023-04-08T14:27:48;6.10;;;5.10;;
21101;SDS011;10709;49.006;12.100;2023-04-08T14:30:23;5.77;;;5.17;;
21101;SDS011;10709;49.006;12.100;2023-04-08T14:32:50;6.57;;;5.43;;
21101;SDS011;10709;49.006;12.100;2023-04-08T14:35:16;7.00;;;5.57;;
21101;SDS011;10709;49.006;12.100;2023-04-08T14:37:43;6.70;;;6.00;;
21101;SDS011;10709;49.006;12.100;2023-04-08T14:40:10;7.27;;;6.03;;
21101;SDS011;10709;49.006;12.100;2023-04-08T14:42:37;8.17;;;6.10;;